Time;durP1;ratioP1;P1;durP2;ratioP2;P2;SDS_P1;SDS_P2;PMS_P1;PMS_P2;Temp;Humidity;BMP_temperature;BMP_pressure;BME280_temperature;BME280_humidity;BME280_pressure;Samples;Min_cycle;Max_cycle;Signal;HPM_P1;HPM_P2
2021/08/13 00:00:17;;;;;;;14.65;13.07;;;;;;;;;;2089597;28;20250;-64
2021/08/13 00:01:17;;;;;;;14.73;13.10;;;;;;;;;;2089302;28;20671;-63
2021/08/13 00:02:17;;;;;;;17.77;12.90;;;;;;;;;;2088906;28;20195;-61
2021/08/13 00:03:17;;;;;;;17.23;13.27;;;;;;;;;;2089129;28;20308;-64
2021/08/13 00:04:18;;;;;;;16.02;13.27;;;;;;;;;;2088655;28;20247;-64
2021/08/13 00:05:18;;;;;;;15.48;13.88;;;;;;;;;;2090088;28;20168;-65
2021/08/13 00:06:18;;;;;;;15.00;13.40;;;;;;;;;;2089591;28;20193;-64
2021/08/13 00:07:18;;;;;;;16.05;13.60;;;;;;;;;;2089465;28;20171;-60
2021/08/13 00:08:18;;;;;;;15.95;13.90;;;;;;;;;;2089975;28;20160;-64
2021/08/13 00:09:21;;;;;;;14.82;13.25;;;;;;;;;;2088742;28;20821;-62
2021/08/13 00:10:22;;;;;;;14.38;12.75;;;;;;;;;;2089639;28;20198;-64
2021/08/13 00:11:22;;;;;;;16.27;12.85;;;;;;;;;;2087987;28;20245;-64
2021/08/13 00:12:22;;;;;;;16.27;13.60;;;;;;;;;;2090180;28;20191;-64
2021/08/13 00:13:22;;;;;;;15.07;13.50;;;;;;;;;;2090074;28;20172;-64
2021/08/13 00:14:23;;;;;;;15.02;13.30;;;;;;;;;;2085324;28;20637;-63
2021/08/13 00:15:23;;;;;;;14.85;13.25;;;;;;;;;;2081346;28;20745;-64
2021/08/13 00:16:23;;;;;;;18.02;13.82;;;;;;;;;;2081472;28;20322;-64
2021/08/13 00:17:25;;;;;;;15.70;14.10;;;;;;;;;;2081990;28;20171;-64
2021/08/13 00:18:25;;;;;;;16.58;13.23;;;;;;;;;;2081727;28;20172;-60
2021/08/13 00:19:26;;;;;;;16.08;13.77;;;;;;;;;;2082439;28;20176;-62
2021/08/13 00:20:27;;;;;;;14.82;13.43;;;;;;;;;;2081190;28;20157;-64
2021/08/13 00:21:28;;;;;;;15.82;14.25;;;;;;;;;;2086380;28;20215;-62
2021/08/13 00:22:29;;;;;;;16.30;13.63;;;;;;;;;;2084766;28;20550;-64
2021/08/13 00:23:29;;;;;;;18.75;13.80;;;;;;;;;;2081287;28;20176;-64
2021/08/13 00:24:29;;;;;;;16.00;13.05;;;;;;;;;;2081246;28;20214;-59
2021/08/13 00:25:29;;;;;;;15.20;13.75;;;;;;;;;;2088357;28;20187;-58
2021/08/13 00:26:31;;;;;;;16.98;12.52;;;;;;;;;;2089926;28;20167;-64
2021/08/13 00:27:31;;;;;;;19.25;13.82;;;;;;;;;;2087443;28;20164;-62
2021/08/13 00:28:31;;;;;;;14.70;13.20;;;;;;;;;;2081710;28;20181;-60
2021/08/13 00:29:32;;;;;;;15.40;13.73;;;;;;;;;;2088290;28;20167;-63
2021/08/13 00:30:32;;;;;;;16.27;13.80;;;;;;;;;;2090240;28;20163;-59
2021/08/13 00:31:32;;;;;;;18.80;14.52;;;;;;;;;;2088907;28;20246;-61
2021/08/13 00:32:33;;;;;;;15.38;13.73;;;;;;;;;;2075574;28;20724;-63
2021/08/13 00:33:34;;;;;;;19.27;14.23;;;;;;;;;;2081437;28;20561;-63
2021/08/13 00:34:35;;;;;;;20.92;14.13;;;;;;;;;;2073035;28;20779;-65
2021/08/13 00:35:36;;;;;;;16.73;15.02;;;;;;;;;;2081248;28;20263;-63
2021/08/13 00:36:36;;;;;;;17.15;15.43;;;;;;;;;;2081405;28;20184;-63
2021/08/13 00:37:37;;;;;;;17.92;15.43;;;;;;;;;;2079490;28;20172;-63
2021/08/13 00:38:38;;;;;;;17.67;14.40;;;;;;;;;;2088709;28;20282;-63
2021/08/13 00:39:39;;;;;;;18.90;15.95;;;;;;;;;;2089357;28;20171;-64
2021/08/13 00:40:40;;;;;;;16.95;14.52;;;;;;;;;;2089520;28;20171;-61
2021/08/13 00:41:41;;;;;;;18.25;15.02;;;;;;;;;;2088838;28;20680;-61
2021/08/13 00:42:42;;;;;;;20.83;15.65;;;;;;;;;;2081954;28;20168;-62
2021/08/13 00:43:42;;;;;;;18.30;16.00;;;;;;;;;;2080618;28;20181;-65
2021/08/13 00:44:43;;;;;;;23.73;15.65;;;;;;;;;;2080972;28;20223;-64
2021/08/13 00:45:43;;;;;;;16.98;15.20;;;;;;;;;;2088038;28;20232;-61
2021/08/13 00:46:47;;;;;;;22.75;15.48;;;;;;;;;;2089298;28;20571;-61
2021/08/13 00:47:54;;;;;;;17.27;15.10;;;;;;;;;;2079547;28;20180;-59
2021/08/13 00:49:08;;;;;;;20.58;15.40;;;;;;;;;;2075966;28;20231;-63
2021/08/13 00:50:13;;;;;;;17.42;14.85;;;;;;;;;;2080987;28;20616;-63
2021/08/13 00:51:17;;;;;;;19.10;14.70;;;;;;;;;;2068622;28;20300;-61
2021/08/13 00:52:18;;;;;;;16.83;15.23;;;;;;;;;;2068579;28;20185;-61
2021/08/13 00:53:20;;;;;;;16.85;15.15;;;;;;;;;;2088015;28;20616;-63
2021/08/13 00:54:22;;;;;;;17.20;15.43;;;;;;;;;;2088047;28;20179;-60
2021/08/13 00:55:24;;;;;;;19.05;14.95;;;;;;;;;;2080886;28;20267;-63
2021/08/13 00:56:31;;;;;;;16.58;14.77;;;;;;;;;;2073939;28;20340;-63
2021/08/13 00:57:57;;;;;;;18.00;14.65;;;;;;;;;;2073514;28;20211;-62
2021/08/13 00:59:10;;;;;;;18.08;14.65;;;;;;;;;;2079484;28;20196;-63
2021/08/13 01:00:30;;;;;;;19.63;15.23;;;;;;;;;;2084703;28;20167;-63
2021/08/13 01:01:31;;;;;;;17.20;15.32;;;;;;;;;;2086579;28;20203;-64
2021/08/13 01:02:32;;;;;;;20.88;15.52;;;;;;;;;;2080581;28;20165;-62
2021/08/13 01:03:39;;;;;;;17.63;15.77;;;;;;;;;;2089083;28;20196;-62
2021/08/13 01:04:40;;;;;;;17.75;15.07;;;;;;;;;;2088985;28;20630;-64
2021/08/13 01:10:17;;;;;;;17.63;15.40;;;;;;;;;;2061874;28;20308;-67
2021/08/13 01:11:38;;;;;;;18.15;16.27;;;;;;;;;;2055643;28;20593;-65
2021/08/13 01:12:53;;;;;;;16.40;14.80;;;;;;;;;;2058258;28;20197;-65
2021/08/13 01:13:56;;;;;;;19.83;15.38;;;;;;;;;;2048425;28;20654;-66
2021/08/13 01:15:02;;;;;;;18.55;15.60;;;;;;;;;;2048422;28;20174;-65
2021/08/13 01:16:06;;;;;;;17.35;15.43;;;;;;;;;;2057588;28;20170;-64
2021/08/13 01:17:09;;;;;;;17.67;15.77;;;;;;;;;;2063637;28;20197;-67
2021/08/13 01:18:13;;;;;;;16.45;14.82;;;;;;;;;;2060673;28;20197;-64
2021/08/13 01:19:30;;;;;;;17.85;16.00;;;;;;;;;;2057012;28;20269;-65
2021/08/13 01:20:49;;;;;;;18.30;15.27;;;;;;;;;;2058583;28;20240;-65
2021/08/13 01:21:56;;;;;;;19.88;14.73;;;;;;;;;;2064220;28;20676;-65
2021/08/13 01:23:03;;;;;;;17.80;15.90;;;;;;;;;;2057800;28;20162;-66
2021/08/13 01:24:08;;;;;;;17.45;15.52;;;;;;;;;;2086747;23;20232;-56
2021/08/13 01:25:11;;;;;;;17.67;15.60;;;;;;;;;;2071090;28;20169;-55
2021/08/13 01:26:12;;;;;;;20.30;15.35;;;;;;;;;;2081504;28;20167;-57
2021/08/13 01:27:16;;;;;;;19.23;15.73;;;;;;;;;;2086110;28;20176;-56
2021/08/13 01:28:37;;;;;;;18.98;16.23;;;;;;;;;;2079140;28;20188;-55
2021/08/13 01:29:42;;;;;;;20.50;16.27;;;;;;;;;;2072087;28;20196;-54
2021/08/13 01:30:42;;;;;;;17.48;15.57;;;;;;;;;;2072306;28;20189;-53
2021/08/13 01:31:46;;;;;;;19.77;15.52;;;;;;;;;;2072339;28;20272;-53
2021/08/13 01:33:11;;;;;;;18.15;16.23;;;;;;;;;;2070849;28;20180;-55
2021/08/13 01:34:18;;;;;;;17.13;15.43;;;;;;;;;;2072580;28;20272;-56
2021/08/13 01:35:20;;;;;;;16.70;15.00;;;;;;;;;;2071693;28;20582;-58
2021/08/13 01:36:25;;;;;;;17.33;15.48;;;;;;;;;;2064816;28;20173;-59
2021/08/13 01:37:26;;;;;;;18.35;16.45;;;;;;;;;;2064253;28;20193;-57
2021/08/13 01:38:34;;;;;;;18.58;15.75;;;;;;;;;;2062163;28;20201;-60
2021/08/13 01:39:37;;;;;;;17.63;15.65;;;;;;;;;;2065469;28;20184;-57
2021/08/13 01:40:42;;;;;;;17.10;15.30;;;;;;;;;;2070474;28;20164;-60
2021/08/13 01:41:43;;;;;;;19.63;15.73;;;;;;;;;;2070256;28;20189;-58
2021/08/13 01:42:47;;;;;;;20.85;17.48;;;;;;;;;;2072010;28;20652;-56
2021/08/13 01:43:50;;;;;;;17.05;15.25;;;;;;;;;;2072040;28;20589;-56
2021/08/13 01:44:54;;;;;;;20.50;18.15;;;;;;;;;;2064552;28;20170;-60
2021/08/13 01:45:55;;;;;;;22.02;17.15;;;;;;;;;;2064311;28;20181;-55
2021/08/13 01:46:56;;;;;;;18.35;16.45;;;;;;;;;;2063911;28;20170;-60
2021/08/13 01:47:57;;;;;;;20.27;16.25;;;;;;;;;;2055478;28;20174;-56
2021/08/13 01:48:59;;;;;;;20.38;18.20;;;;;;;;;;2069962;28;20181;-57
2021/08/13 01:50:04;;;;;;;24.88;19.52;;;;;;;;;;2072468;28;20179;-57
2021/08/13 01:51:05;;;;;;;21.67;18.15;;;;;;;;;;2064144;28;20174;-59
2021/08/13 01:52:09;;;;;;;20.63;17.38;;;;;;;;;;2067289;28;20178;-56
2021/08/13 01:53:09;;;;;;;18.92;16.92;;;;;;;;;;2063965;28;20177;-56
2021/08/13 01:54:10;;;;;;;20.02;17.35;;;;;;;;;;2056921;28;20221;-59
2021/08/13 01:55:15;;;;;;;21.65;18.88;;;;;;;;;;2064065;28;20205;-56
2021/08/13 01:56:17;;;;;;;20.40;18.23;;;;;;;;;;2059826;28;20258;-60
2021/08/13 01:57:17;;;;;;;20.67;18.48;;;;;;;;;;2064408;28;20174;-55
2021/08/13 01:58:18;;;;;;;19.48;17.08;;;;;;;;;;2071050;28;20200;-62
2021/08/13 01:59:21;;;;;;;21.52;18.33;;;;;;;;;;2072835;28;20173;-57
2021/08/13 02:00:23;;;;;;;17.73;15.90;;;;;;;;;;2065801;28;20168;-61
2021/08/13 02:01:30;;;;;;;19.60;16.38;;;;;;;;;;2071602;28;20176;-58
2021/08/13 02:02:33;;;;;;;18.73;16.23;;;;;;;;;;2072388;28;20180;-58
2021/08/13 02:03:34;;;;;;;17.70;16.00;;;;;;;;;;2064492;28;20270;-58
2021/08/13 02:04:34;;;;;;;19.52;15.38;;;;;;;;;;2072586;28;20180;-61
2021/08/13 02:05:38;;;;;;;19.15;15.63;;;;;;;;;;2070214;28;20204;-61
2021/08/13 02:06:39;;;;;;;18.40;16.33;;;;;;;;;;2055627;28;20166;-57
2021/08/13 02:07:50;;;;;;;17.10;15.18;;;;;;;;;;2061479;28;20273;-59
2021/08/13 02:08:52;;;;;;;17.90;16.00;;;;;;;;;;2062091;28;20232;-58
2021/08/13 02:10:01;;;;;;;17.73;15.32;;;;;;;;;;2065503;28;20222;-57
2021/08/13 02:11:02;;;;;;;17.85;16.02;;;;;;;;;;2072552;28;20617;-57
2021/08/13 02:12:03;;;;;;;20.33;15.93;;;;;;;;;;2063802;28;20177;-57
2021/08/13 02:13:06;;;;;;;18.75;16.48;;;;;;;;;;2064528;28;20264;-56
2021/08/13 02:14:07;;;;;;;19.50;16.65;;;;;;;;;;2071850;28;20703;-56
2021/08/13 02:15:10;;;;;;;20.02;16.63;;;;;;;;;;2072247;28;20544;-55
2021/08/13 02:16:14;;;;;;;18.27;16.38;;;;;;;;;;2063882;28;20174;-56
2021/08/13 02:17:21;;;;;;;18.88;17.00;;;;;;;;;;2071694;28;20177;-55
2021/08/13 02:18:24;;;;;;;20.15;17.15;;;;;;;;;;2062772;28;20345;-54
2021/08/13 02:19:27;;;;;;;18.80;16.88;;;;;;;;;;2061913;28;20169;-54
2021/08/13 02:20:28;;;;;;;20.35;16.50;;;;;;;;;;2071247;28;20161;-61
2021/08/13 02:21:30;;;;;;;18.40;16.48;;;;;;;;;;2071669;28;20239;-57
2021/08/13 02:22:31;;;;;;;19.00;16.85;;;;;;;;;;2063738;28;20181;-56
2021/08/13 02:23:33;;;;;;;21.58;17.42;;;;;;;;;;2063759;28;20253;-59
2021/08/13 02:24:37;;;;;;;18.25;16.35;;;;;;;;;;2063762;28;20600;-55
2021/08/13 02:25:47;;;;;;;19.52;16.75;;;;;;;;;;2070716;28;20177;-58
2021/08/13 02:26:48;;;;;;;19.77;17.67;;;;;;;;;;2063649;28;20203;-53
2021/08/13 02:27:50;;;;;;;19.42;17.33;;;;;;;;;;2063269;28;20269;-57
2021/08/13 02:28:52;;;;;;;19.10;17.10;;;;;;;;;;2066587;28;20219;-56
2021/08/13 02:29:55;;;;;;;18.50;15.95;;;;;;;;;;2068294;28;20180;-53
2021/08/13 02:30:57;;;;;;;22.08;17.17;;;;;;;;;;2063113;28;20712;-54
2021/08/13 02:31:59;;;;;;;18.30;16.42;;;;;;;;;;2063740;28;20189;-53
2021/08/13 02:33:01;;;;;;;22.25;16.83;;;;;;;;;;2071313;28;20548;-53
2021/08/13 02:34:04;;;;;;;18.58;16.13;;;;;;;;;;2068979;28;20251;-53
2021/08/13 02:35:10;;;;;;;19.30;16.75;;;;;;;;;;2073498;28;20219;-55
2021/08/13 02:36:14;;;;;;;18.27;16.33;;;;;;;;;;2058662;28;20174;-55
2021/08/13 02:37:21;;;;;;;25.75;17.33;;;;;;;;;;2065193;28;20314;-58
2021/08/13 02:38:23;;;;;;;19.92;17.85;;;;;;;;;;2065351;28;20666;-55
2021/08/13 02:39:28;;;;;;;19.85;17.85;;;;;;;;;;2064866;28;20268;-53
2021/08/13 02:40:29;;;;;;;20.15;17.52;;;;;;;;;;2066202;28;20174;-53
2021/08/13 02:41:31;;;;;;;18.73;16.92;;;;;;;;;;2057867;28;20174;-56
2021/08/13 02:42:38;;;;;;;18.48;16.48;;;;;;;;;;2065714;28;20185;-55
2021/08/13 02:43:47;;;;;;;24.05;16.30;;;;;;;;;;2073531;28;20200;-53
2021/08/13 02:44:51;;;;;;;19.23;16.10;;;;;;;;;;2073335;28;20914;-55
2021/08/13 02:45:53;;;;;;;18.15;16.25;;;;;;;;;;2065852;28;20166;-54
2021/08/13 02:47:02;;;;;;;23.63;16.45;;;;;;;;;;2065791;28;20248;-52
2021/08/13 02:48:03;;;;;;;19.10;16.52;;;;;;;;;;2072408;28;20180;-53
2021/08/13 02:49:10;;;;;;;17.75;16.00;;;;;;;;;;2072574;28;20176;-56
2021/08/13 02:50:11;;;;;;;19.00;16.08;;;;;;;;;;2072978;28;20173;-54
2021/08/13 02:51:15;;;;;;;17.90;15.98;;;;;;;;;;2072613;28;20173;-55
2021/08/13 02:52:19;;;;;;;18.35;16.50;;;;;;;;;;2065985;28;20208;-56
2021/08/13 02:53:21;;;;;;;18.40;15.65;;;;;;;;;;2064442;28;20224;-55
2021/08/13 02:54:25;;;;;;;16.77;15.15;;;;;;;;;;2064993;28;20190;-58
2021/08/13 02:55:32;;;;;;;20.30;15.57;;;;;;;;;;2068654;28;20178;-58
2021/08/13 02:56:33;;;;;;;18.10;15.88;;;;;;;;;;2066287;28;20165;-55
2021/08/13 02:57:36;;;;;;;17.50;15.80;;;;;;;;;;2060039;28;20269;-56
2021/08/13 02:58:42;;;;;;;19.45;16.13;;;;;;;;;;2064441;28;20262;-55
2021/08/13 02:59:44;;;;;;;19.65;16.77;;;;;;;;;;2062470;28;20670;-55
2021/08/13 03:00:46;;;;;;;19.58;16.17;;;;;;;;;;2063619;28;20661;-57
2021/08/13 03:01:47;;;;;;;18.80;16.85;;;;;;;;;;2073312;28;20261;-54
2021/08/13 03:02:50;;;;;;;18.30;16.52;;;;;;;;;;2073792;28;20184;-56
2021/08/13 03:03:54;;;;;;;18.88;16.88;;;;;;;;;;2065030;28;20704;-54
2021/08/13 03:04:56;;;;;;;23.17;17.40;;;;;;;;;;2065609;28;20200;-55
2021/08/13 03:05:58;;;;;;;18.70;16.88;;;;;;;;;;2065054;28;20288;-54
2021/08/13 03:06:59;;;;;;;18.33;16.48;;;;;;;;;;2065617;28;20176;-53
2021/08/13 03:07:59;;;;;;;19.13;17.17;;;;;;;;;;2072763;28;20260;-56
2021/08/13 03:09:00;;;;;;;19.20;16.88;;;;;;;;;;2064259;28;20655;-59
2021/08/13 03:10:01;;;;;;;18.23;15.63;;;;;;;;;;2069556;28;20180;-57
2021/08/13 03:11:03;;;;;;;18.23;16.38;;;;;;;;;;2073402;28;20228;-57
2021/08/13 03:12:04;;;;;;;22.63;17.45;;;;;;;;;;2073493;28;20185;-53
2021/08/13 03:13:07;;;;;;;22.13;16.90;;;;;;;;;;2064957;28;20177;-54
2021/08/13 03:14:09;;;;;;;18.80;16.70;;;;;;;;;;2064518;28;20185;-58
2021/08/13 03:15:10;;;;;;;18.13;16.23;;;;;;;;;;2073173;28;20268;-58
2021/08/13 03:16:13;;;;;;;17.88;15.93;;;;;;;;;;2070432;28;20264;-55
2021/08/13 03:17:20;;;;;;;19.50;17.33;;;;;;;;;;2063749;28;20170;-56
2021/08/13 03:18:20;;;;;;;17.85;16.15;;;;;;;;;;2064510;28;20204;-56
2021/08/13 03:19:22;;;;;;;21.17;17.45;;;;;;;;;;2072307;28;20169;-55
2021/08/13 03:20:23;;;;;;;20.27;17.05;;;;;;;;;;2065117;28;20192;-58
2021/08/13 03:21:34;;;;;;;18.10;15.77;;;;;;;;;;2059936;28;20261;-57
2021/08/13 03:22:35;;;;;;;19.40;17.38;;;;;;;;;;2072285;28;20168;-57
2021/08/13 03:23:39;;;;;;;19.50;17.50;;;;;;;;;;2073176;28;20165;-55
2021/08/13 03:24:39;;;;;;;21.40;16.90;;;;;;;;;;2064440;28;20170;-56
2021/08/13 03:25:41;;;;;;;19.17;17.17;;;;;;;;;;2073614;28;20177;-54
2021/08/13 03:26:47;;;;;;;19.70;17.20;;;;;;;;;;2064302;28;20183;-54
2021/08/13 03:27:52;;;;;;;19.35;17.08;;;;;;;;;;2072855;28;20644;-58
2021/08/13 03:28:52;;;;;;;18.92;16.10;;;;;;;;;;2054622;28;20250;-55
2021/08/13 03:29:52;;;;;;;17.90;15.10;;;;;;;;;;2059532;28;20225;-57
2021/08/13 03:30:53;;;;;;;19.88;16.08;;;;;;;;;;2064890;28;20721;-52
2021/08/13 03:32:01;;;;;;;18.05;16.15;;;;;;;;;;2066232;28;20169;-54
2021/08/13 03:33:02;;;;;;;18.13;16.15;;;;;;;;;;2073011;28;20211;-58
2021/08/13 03:34:04;;;;;;;21.23;17.50;;;;;;;;;;2073202;28;20188;-58
2021/08/13 03:35:06;;;;;;;19.00;16.98;;;;;;;;;;2070265;28;20802;-56
2021/08/13 03:36:08;;;;;;;18.73;16.83;;;;;;;;;;2073151;28;20272;-57
2021/08/13 03:37:10;;;;;;;18.33;16.42;;;;;;;;;;2065393;28;20177;-57
2021/08/13 03:38:13;;;;;;;23.00;16.98;;;;;;;;;;2065556;28;20228;-55
2021/08/13 03:39:15;;;;;;;17.90;16.10;;;;;;;;;;2064642;28;20677;-57
2021/08/13 03:40:18;;;;;;;18.73;16.75;;;;;;;;;;2065104;28;20308;-56
2021/08/13 03:41:23;;;;;;;19.50;17.33;;;;;;;;;;2067693;28;20578;-59
2021/08/13 03:42:25;;;;;;;18.75;16.85;;;;;;;;;;2060294;28;20230;-56
2021/08/13 03:43:26;;;;;;;18.23;16.30;;;;;;;;;;2071820;28;20722;-57
2021/08/13 03:44:26;;;;;;;19.42;17.42;;;;;;;;;;2068285;28;20248;-57
2021/08/13 03:45:28;;;;;;;18.85;16.85;;;;;;;;;;2071304;28;20871;-56
2021/08/13 03:46:28;;;;;;;18.80;16.88;;;;;;;;;;2067168;28;20170;-56
2021/08/13 03:47:31;;;;;;;22.10;17.20;;;;;;;;;;2073270;28;20188;-58
2021/08/13 03:48:31;;;;;;;17.63;15.75;;;;;;;;;;2072569;28;20189;-56
2021/08/13 03:49:32;;;;;;;17.92;16.13;;;;;;;;;;2072881;28;20259;-56
2021/08/13 03:50:32;;;;;;;18.38;16.48;;;;;;;;;;2075651;28;20189;-57
2021/08/13 03:51:33;;;;;;;18.67;16.38;;;;;;;;;;2072958;28;20177;-57
2021/08/13 03:52:34;;;;;;;20.38;16.63;;;;;;;;;;2066468;28;20197;-55
2021/08/13 03:53:35;;;;;;;19.27;17.15;;;;;;;;;;2072961;28;20740;-57
2021/08/13 03:54:36;;;;;;;18.95;16.02;;;;;;;;;;2078319;28;20176;-58
2021/08/13 03:55:37;;;;;;;20.30;16.30;;;;;;;;;;2071899;28;20683;-58
2021/08/13 03:56:37;;;;;;;19.23;17.25;;;;;;;;;;2059966;28;20177;-58
2021/08/13 03:57:38;;;;;;;20.58;17.33;;;;;;;;;;2072884;28;20200;-55
2021/08/13 03:58:38;;;;;;;20.20;16.52;;;;;;;;;;2072072;28;20173;-58
2021/08/13 03:59:40;;;;;;;20.83;17.88;;;;;;;;;;2072720;28;20289;-55
2021/08/13 04:00:40;;;;;;;18.42;16.48;;;;;;;;;;2064888;28;20835;-54
2021/08/13 04:01:40;;;;;;;18.00;15.98;;;;;;;;;;2072269;28;20212;-55
2021/08/13 04:02:41;;;;;;;18.77;16.70;;;;;;;;;;2081638;28;20168;-58
2021/08/13 04:03:42;;;;;;;19.70;17.65;;;;;;;;;;2080098;28;20289;-54
2021/08/13 04:04:43;;;;;;;20.48;18.42;;;;;;;;;;2064557;28;20189;-58
2021/08/13 04:05:43;;;;;;;18.92;16.35;;;;;;;;;;2064382;28;20272;-59
2021/08/13 04:06:44;;;;;;;19.48;17.40;;;;;;;;;;2074822;28;20184;-59
2021/08/13 04:07:45;;;;;;;21.30;18.38;;;;;;;;;;2068169;28;20200;-57
2021/08/13 04:08:45;;;;;;;22.58;18.35;;;;;;;;;;2063526;28;20154;-58
2021/08/13 04:09:46;;;;;;;21.00;18.75;;;;;;;;;;2072120;28;20185;-59
2021/08/13 04:10:49;;;;;;;22.75;18.45;;;;;;;;;;2073587;28;20754;-57
2021/08/13 04:11:50;;;;;;;20.02;17.33;;;;;;;;;;2065642;28;20188;-57
2021/08/13 04:12:51;;;;;;;20.75;17.40;;;;;;;;;;2052310;28;20515;-56
2021/08/13 04:13:56;;;;;;;20.67;17.70;;;;;;;;;;2060099;28;20201;-58
2021/08/13 04:14:59;;;;;;;20.13;17.92;;;;;;;;;;2072032;28;20173;-57
2021/08/13 04:16:00;;;;;;;20.95;18.45;;;;;;;;;;2063617;28;20669;-54
2021/08/13 04:17:01;;;;;;;18.75;16.83;;;;;;;;;;2063900;28;20205;-56
2021/08/13 04:18:02;;;;;;;18.70;16.77;;;;;;;;;;2055881;28;20272;-57
2021/08/13 04:19:04;;;;;;;19.67;17.23;;;;;;;;;;2061542;28;20589;-57
2021/08/13 04:20:08;;;;;;;20.95;17.00;;;;;;;;;;2070235;28;20527;-57
2021/08/13 04:21:12;;;;;;;17.90;16.15;;;;;;;;;;2072260;28;20173;-56
2021/08/13 04:22:14;;;;;;;18.27;16.40;;;;;;;;;;2071844;28;20165;-57
2021/08/13 04:23:17;;;;;;;17.63;15.80;;;;;;;;;;2063439;28;20642;-58
2021/08/13 04:24:18;;;;;;;17.75;15.88;;;;;;;;;;2068318;28;20212;-56
2021/08/13 04:25:18;;;;;;;19.17;16.90;;;;;;;;;;2062434;28;20190;-58
2021/08/13 04:26:19;;;;;;;19.67;16.63;;;;;;;;;;2064404;28;20255;-57
2021/08/13 04:27:20;;;;;;;17.60;15.80;;;;;;;;;;2064471;28;20177;-56
2021/08/13 04:28:20;;;;;;;17.33;15.52;;;;;;;;;;2063987;28;20174;-53
2021/08/13 04:29:21;;;;;;;17.13;15.38;;;;;;;;;;2063496;28;20212;-60
2021/08/13 04:30:22;;;;;;;18.90;15.75;;;;;;;;;;2063738;28;20188;-55
2021/08/13 04:31:22;;;;;;;18.92;16.83;;;;;;;;;;2072292;28;20711;-56
2021/08/13 04:32:22;;;;;;;21.55;17.83;;;;;;;;;;2072406;28;20258;-56
2021/08/13 04:33:22;;;;;;;21.83;17.25;;;;;;;;;;2064175;28;20249;-53
2021/08/13 04:34:29;;;;;;;19.83;17.27;;;;;;;;;;2056410;28;20197;-55
2021/08/13 04:35:32;;;;;;;18.48;16.45;;;;;;;;;;2064621;28;20228;-55
2021/08/13 04:36:37;;;;;;;18.05;16.17;;;;;;;;;;2066488;28;20182;-58
2021/08/13 04:37:38;;;;;;;20.67;17.27;;;;;;;;;;2057517;28;20182;-56
2021/08/13 04:38:38;;;;;;;19.13;16.35;;;;;;;;;;2067074;28;20177;-55
2021/08/13 04:39:40;;;;;;;20.10;17.65;;;;;;;;;;2069201;28;20243;-56
2021/08/13 04:40:42;;;;;;;19.38;17.38;;;;;;;;;;2064201;28;20224;-56
2021/08/13 04:41:44;;;;;;;19.75;17.30;;;;;;;;;;2064031;28;20169;-57
2021/08/13 04:42:44;;;;;;;18.95;16.98;;;;;;;;;;2073034;28;20663;-58
2021/08/13 04:43:44;;;;;;;20.60;18.50;;;;;;;;;;2071567;28;20206;-56
2021/08/13 04:44:46;;;;;;;22.85;18.08;;;;;;;;;;2072565;28;20180;-56
2021/08/13 04:45:46;;;;;;;19.17;17.27;;;;;;;;;;2072057;28;20240;-57
2021/08/13 04:46:47;;;;;;;18.98;16.80;;;;;;;;;;2064069;28;20174;-56
2021/08/13 04:47:47;;;;;;;18.83;16.98;;;;;;;;;;2055958;28;20170;-56
2021/08/13 04:48:48;;;;;;;20.05;17.08;;;;;;;;;;2064204;28;20182;-59
2021/08/13 04:49:52;;;;;;;20.42;16.58;;;;;;;;;;2055812;28;20264;-56
2021/08/13 04:50:53;;;;;;;18.85;16.83;;;;;;;;;;2052405;28;20170;-53
2021/08/13 04:51:53;;;;;;;19.50;17.40;;;;;;;;;;2067769;28;20662;-55
2021/08/13 04:52:54;;;;;;;20.23;17.67;;;;;;;;;;2074321;28;20177;-56
2021/08/13 04:53:54;;;;;;;20.73;18.52;;;;;;;;;;2068966;28;20235;-58
2021/08/13 04:54:55;;;;;;;19.42;17.42;;;;;;;;;;2065824;28;20169;-55
2021/08/13 04:55:55;;;;;;;20.48;18.35;;;;;;;;;;2064349;28;20157;-59
2021/08/13 04:56:55;;;;;;;19.23;17.13;;;;;;;;;;2071395;28;20172;-57
2021/08/13 04:57:56;;;;;;;21.27;17.90;;;;;;;;;;2079152;28;20204;-57
2021/08/13 04:58:56;;;;;;;20.38;18.25;;;;;;;;;;2075141;28;20164;-57
2021/08/13 05:00:13;;;;;;;18.85;17.10;;;;;;;;;;2074058;28;20169;-56
2021/08/13 05:01:15;;;;;;;22.70;16.65;;;;;;;;;;2064569;28;20312;-56
2021/08/13 05:02:22;;;;;;;18.58;16.67;;;;;;;;;;2063607;28;20170;-56
2021/08/13 05:03:23;;;;;;;23.75;20.90;;;;;;;;;;2066051;28;20170;-54
2021/08/13 05:04:24;;;;;;;22.48;18.15;;;;;;;;;;2063549;28;20242;-57
2021/08/13 05:05:24;;;;;;;20.38;18.17;;;;;;;;;;2070452;28;20201;-57
2021/08/13 05:06:25;;;;;;;24.27;21.70;;;;;;;;;;2072212;28;20165;-57
2021/08/13 05:07:28;;;;;;;20.02;17.90;;;;;;;;;;2064678;28;20174;-54
2021/08/13 05:08:28;;;;;;;22.30;17.92;;;;;;;;;;2070844;28;20648;-55
2021/08/13 05:09:30;;;;;;;28.55;23.83;;;;;;;;;;2069149;28;20219;-56
2021/08/13 05:10:31;;;;;;;20.25;18.15;;;;;;;;;;2076143;28;20188;-57
2021/08/13 05:11:31;;;;;;;21.33;17.23;;;;;;;;;;2079285;28;20191;-56
2021/08/13 05:12:31;;;;;;;23.00;19.77;;;;;;;;;;2064003;28;20181;-53
2021/08/13 05:13:31;;;;;;;19.52;17.38;;;;;;;;;;2063926;28;20184;-54
2021/08/13 05:14:32;;;;;;;24.08;21.30;;;;;;;;;;2057332;28;20585;-57
2021/08/13 05:15:32;;;;;;;21.67;19.40;;;;;;;;;;2064235;28;20739;-56
2021/08/13 05:16:33;;;;;;;24.88;21.00;;;;;;;;;;2057466;28;20293;-54
2021/08/13 05:17:36;;;;;;;24.35;21.70;;;;;;;;;;2064089;28;20224;-57
2021/08/13 05:18:36;;;;;;;21.10;18.90;;;;;;;;;;2064364;28;20169;-58
2021/08/13 05:19:36;;;;;;;20.88;18.20;;;;;;;;;;2072032;28;20239;-56
2021/08/13 05:20:37;;;;;;;26.58;23.02;;;;;;;;;;2073559;28;20566;-58
2021/08/13 05:21:39;;;;;;;19.20;17.20;;;;;;;;;;2065890;28;20181;-54
2021/08/13 05:22:42;;;;;;;18.65;16.65;;;;;;;;;;2072746;28;20177;-57
2021/08/13 05:23:42;;;;;;;18.85;16.88;;;;;;;;;;2068347;28;20251;-56
2021/08/13 05:24:43;;;;;;;18.83;16.85;;;;;;;;;;2065145;28;20237;-55
2021/08/13 05:25:43;;;;;;;18.60;16.48;;;;;;;;;;2072893;28;20176;-53
2021/08/13 05:26:43;;;;;;;17.83;15.98;;;;;;;;;;2080307;28;20531;-55
2021/08/13 05:27:46;;;;;;;25.55;22.33;;;;;;;;;;2065936;28;20230;-55
2021/08/13 05:28:46;;;;;;;18.60;16.70;;;;;;;;;;2067150;28;20216;-57
2021/08/13 05:29:50;;;;;;;19.38;17.20;;;;;;;;;;2073413;28;20200;-53
2021/08/13 05:30:51;;;;;;;20.45;17.63;;;;;;;;;;2064010;28;20161;-58
2021/08/13 05:31:51;;;;;;;17.95;16.15;;;;;;;;;;2063939;28;20264;-53
2021/08/13 05:32:52;;;;;;;19.02;16.95;;;;;;;;;;2064560;28;20181;-53
2021/08/13 05:33:53;;;;;;;27.42;24.17;;;;;;;;;;2072803;28;20195;-54
2021/08/13 05:34:53;;;;;;;26.20;22.73;;;;;;;;;;2079078;28;20275;-53
2021/08/13 05:35:54;;;;;;;18.42;16.52;;;;;;;;;;2084842;28;20187;-53
2021/08/13 05:36:54;;;;;;;25.08;22.25;;;;;;;;;;2070686;28;20252;-57
2021/08/13 05:37:57;;;;;;;17.83;16.13;;;;;;;;;;2067214;28;20209;-59
2021/08/13 05:38:57;;;;;;;17.15;15.45;;;;;;;;;;2072641;28;20165;-57
2021/08/13 05:39:58;;;;;;;19.88;17.83;;;;;;;;;;2072988;28;20169;-55
2021/08/13 05:40:58;;;;;;;18.05;15.52;;;;;;;;;;2072273;28;20177;-54
2021/08/13 05:41:58;;;;;;;20.40;18.30;;;;;;;;;;2084052;28;20188;-57
2021/08/13 05:42:59;;;;;;;21.75;19.05;;;;;;;;;;2073383;28;20157;-56
2021/08/13 05:43:59;;;;;;;16.92;15.13;;;;;;;;;;2074318;28;20184;-56
2021/08/13 05:45:00;;;;;;;22.08;19.05;;;;;;;;;;2071781;28;20169;-58
2021/08/13 05:46:01;;;;;;;19.00;17.00;;;;;;;;;;2073812;28;20165;-57
2021/08/13 05:47:01;;;;;;;20.13;18.02;;;;;;;;;;2072072;28;20207;-58
2021/08/13 05:48:01;;;;;;;21.40;18.85;;;;;;;;;;2071749;28;20633;-58
2021/08/13 05:49:02;;;;;;;17.38;15.35;;;;;;;;;;2071727;28;20254;-59
2021/08/13 05:50:02;;;;;;;19.50;16.73;;;;;;;;;;2065617;28;20304;-59
2021/08/13 05:51:03;;;;;;;20.95;16.05;;;;;;;;;;2063501;28;20277;-59
2021/08/13 05:52:04;;;;;;;19.08;15.15;;;;;;;;;;2066331;28;20169;-59
2021/08/13 05:53:05;;;;;;;16.17;14.55;;;;;;;;;;2067851;28;20181;-57
2021/08/13 05:54:10;;;;;;;21.70;17.65;;;;;;;;;;2072293;28;20283;-58
2021/08/13 05:55:11;;;;;;;20.00;17.90;;;;;;;;;;2071987;28;20185;-58
2021/08/13 05:56:11;;;;;;;20.17;15.57;;;;;;;;;;2080228;28;20184;-56
2021/08/13 05:57:12;;;;;;;19.42;16.23;;;;;;;;;;2069958;28;20183;-58
2021/08/13 05:58:12;;;;;;;18.83;15.48;;;;;;;;;;2071533;28;20881;-56
2021/08/13 05:59:13;;;;;;;17.88;15.25;;;;;;;;;;2074072;28;20710;-57
2021/08/13 06:00:13;;;;;;;17.60;15.80;;;;;;;;;;2075509;28;20168;-58
2021/08/13 06:01:21;;;;;;;18.65;14.88;;;;;;;;;;2066333;28;20224;-56
2021/08/13 06:02:22;;;;;;;18.73;16.10;;;;;;;;;;2064525;28;20188;-57
2021/08/13 06:03:22;;;;;;;15.75;14.15;;;;;;;;;;2064781;28;20180;-58
2021/08/13 06:04:25;;;;;;;18.05;16.23;;;;;;;;;;2072449;28;20708;-58
2021/08/13 06:05:25;;;;;;;18.48;16.60;;;;;;;;;;2056507;28;20190;-62
2021/08/13 06:06:28;;;;;;;16.50;14.77;;;;;;;;;;2052043;28;20254;-59
2021/08/13 06:07:28;;;;;;;17.20;14.02;;;;;;;;;;2072830;28;20629;-58